»·PEaware :: N35CB KSNA-KAVX

N35CB :: KSNA-KAVX

FLIGHT INFORMATION

Flight Status: Arrived
Operator: Privately registered:
United States
More flights under this callsign
Pilot: Adam S. (8156)
Aircraft: CESSNA 340
(C340)
More flights by this aircraft type
Origin: KSNA John Wayne-Orange Co
United States
Destination: KAVX Catalina
United States
More flights between these airports :: More routes between these airports
Route: +DIRECT
File this flight plan on PilotEdge
Remarks:
Altitude:
(Current/Filed)
6,500ft
Speed:
(Current/Filed)
175kts
Departed: 10-Apr-16 03:26 PM
Arrived: 10-Apr-16 03:43 PM
Distance/Time
Traveled:
32nm/0:17
Distance/Time
To Go:
Arrived

Flight Plot

Page will automatically refresh every two minutes.


Map Options




Map Legend


Flown Route
Filed Route
Departure Airport
Arrival Airport
Navaid (VOR, NDB)
Fix

Horizontal Profiles

Position Reports

Time Latitude Longitude Heading Altitude Ground
Speed
10-Apr-16 14:51 33.671498 -117.873589 27 49ft 0kts
10-Apr-16 14:52 33.671498 -117.873589 27 49ft 0kts
10-Apr-16 14:53 33.671498 -117.873589 27 49ft 0kts
10-Apr-16 14:54 33.671498 -117.873589 27 49ft 0kts
10-Apr-16 14:55 33.671498 -117.873589 27 49ft 0kts
10-Apr-16 14:56 33.671498 -117.873589 27 49ft 0kts
10-Apr-16 14:57 33.671498 -117.873589 27 49ft 0kts
10-Apr-16 14:58 33.671498 -117.873589 27 49ft 0kts
10-Apr-16 14:59 33.671498 -117.873589 27 49ft 0kts
10-Apr-16 15:00 33.671498 -117.873589 27 49ft 0kts
10-Apr-16 15:01 33.671498 -117.873589 27 49ft 0kts
10-Apr-16 15:02 33.671498 -117.873589 27 49ft 0kts
10-Apr-16 15:03 33.671498 -117.873589 27 49ft 0kts
10-Apr-16 15:03 33.671498 -117.873589 27 49ft 0kts
10-Apr-16 15:05 33.671498 -117.873589 27 49ft 0kts
10-Apr-16 15:05 33.671498 -117.873589 27 49ft 0kts
10-Apr-16 15:06 33.671498 -117.873589 27 49ft 0kts
10-Apr-16 15:07 33.671498 -117.873589 27 49ft 0kts
10-Apr-16 15:08 33.671498 -117.873589 27 49ft 0kts
10-Apr-16 15:09 33.671498 -117.873589 27 49ft 0kts
10-Apr-16 15:10 33.673955 -117.871449 27 49ft 29kts
10-Apr-16 15:11 33.681208 -117.866806 78 49ft 5kts
10-Apr-16 15:12 33.681205 -117.866521 93 49ft 0kts
10-Apr-16 15:13 33.681205 -117.866521 93 49ft 0kts
10-Apr-16 15:14 33.681205 -117.866521 93 49ft 0kts
10-Apr-16 15:15 33.681205 -117.866521 93 49ft 0kts
10-Apr-16 15:16 33.679648 -117.866271 211 49ft 22kts
10-Apr-16 15:17 33.660630 -117.880636 239 662ft 92kts
10-Apr-16 15:18 33.653748 -117.910002 254 1586ft 94kts
10-Apr-16 15:19 33.648088 -117.944543 255 2744ft 103kts
10-Apr-16 15:20 33.641955 -117.981101 261 2153ft 105kts
10-Apr-16 15:21 33.639136 -118.014428 274 1689ft 95kts
10-Apr-16 15:22 33.626174 -118.034779 211 1682ft 83kts
10-Apr-16 15:23 33.606072 -118.047977 211 2444ft 82kts
10-Apr-16 15:24 33.584366 -118.062882 221 3797ft 93kts
10-Apr-16 15:25 33.566080 -118.090156 238 4593ft 145kts
10-Apr-16 15:26 33.541925 -118.138150 240 4569ft 180kts
10-Apr-16 15:27 33.516029 -118.190736 241 4572ft 186kts
10-Apr-16 15:28 33.489470 -118.244684 240 4578ft 189kts
10-Apr-16 15:29 33.465458 -118.293400 239 4553ft 119kts
10-Apr-16 15:30 33.454105 -118.327165 245 4091ft 110kts
10-Apr-16 15:31 33.441177 -118.360373 252 3342ft 109kts
10-Apr-16 15:32 33.423739 -118.387777 222 2058ft 101kts
10-Apr-16 15:33 33.408424 -118.409771 235 1584ft 75kts
10-Apr-16 15:34 33.402187 -118.417262 47 1546ft 23kts
10-Apr-16 15:35 33.496864 -118.229674 240 4576ft 188kts
10-Apr-16 15:36 33.434898 -118.374671 229 2672ft 106kts
10-Apr-16 15:37 33.415568 -118.397749 229 1778ft 86kts
10-Apr-16 15:38 33.403530 -118.418285 232 1620ft 48kts
10-Apr-16 15:40 33.403233 -118.415783 49 1574ft 0kts
10-Apr-16 15:41 33.403233 -118.415783 49 1574ft 0kts

Navigation Log

Ident Type
1. KSNA Airport
2. KAVX Airport